sensor_id;sensor_type;location;lat;lon;timestamp;pressure;altitude;pressure_sealevel;temperature;humidity
41886;BME280;27567;43.084;25.616;2023-05-21T00:02:16;98122.13;;;10.51;100.00
41886;BME280;27567;43.084;25.616;2023-05-21T00:05:01;98112.63;;;10.42;100.00
41886;BME280;27567;43.084;25.616;2023-05-21T00:07:45;98126.00;;;10.48;100.00
41886;BME280;27567;43.084;25.616;2023-05-21T00:10:29;98124.19;;;10.42;100.00
41886;BME280;27567;43.084;25.616;2023-05-21T00:13:14;98112.38;;;10.30;100.00
41886;BME280;27567;43.084;25.616;2023-05-21T00:15:58;98106.44;;;10.34;100.00
41886;BME280;27567;43.084;25.616;2023-05-21T00:18:42;98104.97;;;10.18;100.00
41886;BME280;27567;43.084;25.616;2023-05-21T00:21:27;98107.66;;;10.25;100.00
41886;BME280;27567;43.084;25.616;2023-05-21T00:24:12;98102.06;;;10.06;100.00
41886;BME280;27567;43.084;25.616;2023-05-21T00:26:56;98108.06;;;10.29;100.00
41886;BME280;27567;43.084;25.616;2023-05-21T00:29:41;98099.19;;;10.35;100.00
41886;BME280;27567;43.084;25.616;2023-05-21T00:32:25;98106.22;;;10.43;100.00
41886;BME280;27567;43.084;25.616;2023-05-21T00:35:09;98104.97;;;10.25;100.00
41886;BME280;27567;43.084;25.616;2023-05-21T00:37:52;98099.44;;;10.40;100.00
41886;BME280;27567;43.084;25.616;2023-05-21T00:40:36;98105.19;;;10.50;100.00
41886;BME280;27567;43.084;25.616;2023-05-21T00:43:23;98101.69;;;10.57;100.00
41886;BME280;27567;43.084;25.616;2023-05-21T00:46:13;98101.09;;;10.68;100.00
41886;BME280;27567;43.084;25.616;2023-05-21T00:48:59;98103.53;;;10.70;100.00
41886;BME280;27567;43.084;25.616;2023-05-21T00:51:43;98097.16;;;10.64;100.00
41886;BME280;27567;43.084;25.616;2023-05-21T00:54:29;98097.72;;;10.86;100.00
41886;BME280;27567;43.084;25.616;2023-05-21T00:57:13;98085.34;;;10.85;100.00
41886;BME280;27567;43.084;25.616;2023-05-21T00:59:57;98090.53;;;10.73;100.00
41886;BME280;27567;43.084;25.616;2023-05-21T01:02:41;98093.66;;;10.70;100.00
41886;BME280;27567;43.084;25.616;2023-05-21T01:05:27;98091.59;;;10.59;100.00
41886;BME280;27567;43.084;25.616;2023-05-21T01:08:11;98090.38;;;10.48;100.00
41886;BME280;27567;43.084;25.616;2023-05-21T01:10:56;98090.16;;;10.49;100.00
41886;BME280;27567;43.084;25.616;2023-05-21T01:13:40;98081.28;;;10.56;100.00
41886;BME280;27567;43.084;25.616;2023-05-21T01:16:24;98087.25;;;10.71;100.00
41886;BME280;27567;43.084;25.616;2023-05-21T01:19:16;98091.81;;;10.64;100.00
41886;BME280;27567;43.084;25.616;2023-05-21T01:22:05;98090.13;;;10.76;100.00
41886;BME280;27567;43.084;25.616;2023-05-21T01:24:50;98093.84;;;10.75;100.00
41886;BME280;27567;43.084;25.616;2023-05-21T01:27:35;98087.03;;;10.73;100.00
41886;BME280;27567;43.084;25.616;2023-05-21T01:30:20;98092.38;;;10.79;100.00
41886;BME280;27567;43.084;25.616;2023-05-21T01:33:18;98091.56;;;10.79;100.00
41886;BME280;27567;43.084;25.616;2023-05-21T01:36:18;98086.44;;;10.50;100.00
41886;BME280;27567;43.084;25.616;2023-05-21T01:39:18;98083.75;;;10.64;100.00
41886;BME280;27567;43.084;25.616;2023-05-21T01:42:08;98080.66;;;10.67;100.00
41886;BME280;27567;43.084;25.616;2023-05-21T01:44:54;98083.53;;;10.72;100.00
41886;BME280;27567;43.084;25.616;2023-05-21T01:47:40;98073.22;;;10.62;100.00
41886;BME280;27567;43.084;25.616;2023-05-21T01:50:26;98073.03;;;10.50;100.00
41886;BME280;27567;43.084;25.616;2023-05-21T01:53:12;98064.81;;;10.52;100.00
41886;BME280;27567;43.084;25.616;2023-05-21T01:55:57;98065.19;;;10.62;100.00
41886;BME280;27567;43.084;25.616;2023-05-21T01:58:42;98070.97;;;10.66;100.00
41886;BME280;27567;43.084;25.616;2023-05-21T02:01:26;98066.22;;;10.68;100.00
41886;BME280;27567;43.084;25.616;2023-05-21T02:04:12;98061.47;;;10.63;100.00
41886;BME280;27567;43.084;25.616;2023-05-21T02:06:56;98068.69;;;10.70;100.00
41886;BME280;27567;43.084;25.616;2023-05-21T02:09:40;98074.88;;;10.70;100.00
41886;BME280;27567;43.084;25.616;2023-05-21T02:12:24;98077.31;;;10.78;100.00
41886;BME280;27567;43.084;25.616;2023-05-21T02:15:09;98067.19;;;10.87;100.00
41886;BME280;27567;43.084;25.616;2023-05-21T02:17:53;98060.97;;;11.00;100.00
41886;BME280;27567;43.084;25.616;2023-05-21T02:20:38;98059.72;;;11.09;100.00
41886;BME280;27567;43.084;25.616;2023-05-21T02:23:22;98074.31;;;11.27;100.00
41886;BME280;27567;43.084;25.616;2023-05-21T02:26:06;98073.47;;;11.33;100.00
41886;BME280;27567;43.084;25.616;2023-05-21T02:28:50;98068.28;;;11.32;100.00
41886;BME280;27567;43.084;25.616;2023-05-21T02:31:35;98060.06;;;11.20;100.00
41886;BME280;27567;43.084;25.616;2023-05-21T02:34:19;98051.03;;;11.14;100.00
41886;BME280;27567;43.084;25.616;2023-05-21T02:37:03;98058.88;;;11.09;100.00
41886;BME280;27567;43.084;25.616;2023-05-21T02:39:47;98056.66;;;11.06;100.00
41886;BME280;27567;43.084;25.616;2023-05-21T02:42:32;98063.22;;;11.10;100.00
41886;BME280;27567;43.084;25.616;2023-05-21T02:45:16;98061.41;;;11.04;100.00
41886;BME280;27567;43.084;25.616;2023-05-21T02:48:00;98058.72;;;10.97;100.00
41886;BME280;27567;43.084;25.616;2023-05-21T02:50:44;98062.44;;;10.89;100.00
41886;BME280;27567;43.084;25.616;2023-05-21T02:53:28;98069.72;;;10.82;100.00
41886;BME280;27567;43.084;25.616;2023-05-21T02:56:12;98063.13;;;10.71;100.00
41886;BME280;27567;43.084;25.616;2023-05-21T02:58:56;98057.38;;;10.54;100.00
41886;BME280;27567;43.084;25.616;2023-05-21T03:01:40;98060.69;;;10.56;100.00
41886;BME280;27567;43.084;25.616;2023-05-21T03:04:24;98076.34;;;10.66;100.00
41886;BME280;27567;43.084;25.616;2023-05-21T03:07:15;98060.03;;;10.67;100.00
41886;BME280;27567;43.084;25.616;2023-05-21T03:10:01;98066.00;;;10.76;100.00
41886;BME280;27567;43.084;25.616;2023-05-21T03:12:45;98066.75;;;10.97;100.00
41886;BME280;27567;43.084;25.616;2023-05-21T03:15:30;98059.31;;;10.99;100.00
41886;BME280;27567;43.084;25.616;2023-05-21T03:18:16;98066.50;;;11.12;100.00
41886;BME280;27567;43.084;25.616;2023-05-21T03:21:00;98066.50;;;11.19;100.00
41886;BME280;27567;43.084;25.616;2023-05-21T03:23:44;98062.94;;;11.25;100.00
41886;BME280;27567;43.084;25.616;2023-05-21T03:26:28;98066.38;;;11.46;100.00
41886;BME280;27567;43.084;25.616;2023-05-21T03:29:12;98066.75;;;11.56;100.00
41886;BME280;27567;43.084;25.616;2023-05-21T03:31:56;98062.97;;;11.64;100.00
41886;BME280;27567;43.084;25.616;2023-05-21T03:34:40;98062.59;;;11.60;100.00
41886;BME280;27567;43.084;25.616;2023-05-21T03:37:24;98066.97;;;11.54;100.00
41886;BME280;27567;43.084;25.616;2023-05-21T03:40:08;98065.94;;;11.55;100.00
41886;BME280;27567;43.084;25.616;2023-05-21T03:42:53;98064.00;;;11.63;100.00
41886;BME280;27567;43.084;25.616;2023-05-21T03:45:37;98072.63;;;11.78;100.00
41886;BME280;27567;43.084;25.616;2023-05-21T03:48:21;98069.59;;;11.93;100.00
41886;BME280;27567;43.084;25.616;2023-05-21T03:51:06;98073.72;;;12.28;100.00
41886;BME280;27567;43.084;25.616;2023-05-21T03:53:50;98070.88;;;11.91;100.00
41886;BME280;27567;43.084;25.616;2023-05-21T03:56:34;98063.59;;;11.98;100.00
41886;BME280;27567;43.084;25.616;2023-05-21T03:59:18;98065.22;;;12.31;100.00
41886;BME280;27567;43.084;25.616;2023-05-21T04:02:03;98071.63;;;12.37;100.00
41886;BME280;27567;43.084;25.616;2023-05-21T04:04:47;98069.13;;;12.60;100.00
41886;BME280;27567;43.084;25.616;2023-05-21T04:07:31;98070.88;;;12.73;100.00
41886;BME280;27567;43.084;25.616;2023-05-21T04:10:15;98066.28;;;12.74;100.00
41886;BME280;27567;43.084;25.616;2023-05-21T04:12:59;98052.47;;;12.70;100.00
41886;BME280;27567;43.084;25.616;2023-05-21T04:15:43;98051.78;;;12.56;100.00
41886;BME280;27567;43.084;25.616;2023-05-21T04:18:29;98046.25;;;12.51;100.00
41886;BME280;27567;43.084;25.616;2023-05-21T04:21:13;98057.97;;;12.57;100.00
41886;BME280;27567;43.084;25.616;2023-05-21T04:23:57;98062.97;;;12.97;100.00
41886;BME280;27567;43.084;25.616;2023-05-21T04:26:43;98058.97;;;13.18;100.00
41886;BME280;27567;43.084;25.616;2023-05-21T04:29:27;98055.09;;;13.51;100.00
41886;BME280;27567;43.084;25.616;2023-05-21T04:32:12;98052.38;;;13.82;100.00
41886;BME280;27567;43.084;25.616;2023-05-21T04:34:58;98061.22;;;13.89;100.00
41886;BME280;27567;43.084;25.616;2023-05-21T04:37:44;98072.72;;;13.66;100.00
41886;BME280;27567;43.084;25.616;2023-05-21T04:40:28;98075.34;;;13.35;100.00
41886;BME280;27567;43.084;25.616;2023-05-21T04:43:12;98083.53;;;13.10;100.00
41886;BME280;27567;43.084;25.616;2023-05-21T04:45:56;98088.00;;;12.98;100.00
41886;BME280;27567;43.084;25.616;2023-05-21T04:48:40;98071.69;;;13.30;100.00
41886;BME280;27567;43.084;25.616;2023-05-21T04:51:24;98064.63;;;13.66;100.00
41886;BME280;27567;43.084;25.616;2023-05-21T04:54:09;98069.66;;;13.62;100.00
41886;BME280;27567;43.084;25.616;2023-05-21T04:56:53;98066.16;;;14.04;100.00
41886;BME280;27567;43.084;25.616;2023-05-21T04:59:37;98058.09;;;14.04;100.00
41886;BME280;27567;43.084;25.616;2023-05-21T05:02:22;98064.22;;;14.47;100.00
41886;BME280;27567;43.084;25.616;2023-05-21T05:05:06;98070.91;;;14.56;100.00
41886;BME280;27567;43.084;25.616;2023-05-21T05:07:50;98068.13;;;14.75;100.00
41886;BME280;27567;43.084;25.616;2023-05-21T05:10:34;98070.94;;;14.68;100.00
41886;BME280;27567;43.084;25.616;2023-05-21T05:13:18;98065.06;;;14.95;100.00
41886;BME280;27567;43.084;25.616;2023-05-21T05:16:02;98065.38;;;15.11;100.00
41886;BME280;27567;43.084;25.616;2023-05-21T05:18:47;98066.75;;;15.37;100.00
41886;BME280;27567;43.084;25.616;2023-05-21T05:21:31;98057.03;;;15.24;100.00
41886;BME280;27567;43.084;25.616;2023-05-21T05:24:16;98065.47;;;15.28;100.00
41886;BME280;27567;43.084;25.616;2023-05-21T05:27:00;98064.34;;;15.00;100.00
41886;BME280;27567;43.084;25.616;2023-05-21T05:29:44;98060.72;;;15.06;100.00
41886;BME280;27567;43.084;25.616;2023-05-21T05:32:28;98069.31;;;14.79;100.00
41886;BME280;27567;43.084;25.616;2023-05-21T05:35:12;98064.94;;;15.02;100.00
41886;BME280;27567;43.084;25.616;2023-05-21T05:37:57;98069.78;;;14.76;100.00
41886;BME280;27567;43.084;25.616;2023-05-21T05:40:41;98066.09;;;14.47;100.00
41886;BME280;27567;43.084;25.616;2023-05-21T05:43:25;98064.00;;;14.37;100.00
41886;BME280;27567;43.084;25.616;2023-05-21T05:46:09;98060.38;;;14.43;100.00
41886;BME280;27567;43.084;25.616;2023-05-21T05:48:53;98063.41;;;14.47;100.00
41886;BME280;27567;43.084;25.616;2023-05-21T05:51:37;98066.81;;;14.42;100.00
41886;BME280;27567;43.084;25.616;2023-05-21T05:54:20;98060.50;;;14.84;100.00
41886;BME280;27567;43.084;25.616;2023-05-21T05:57:04;98061.69;;;14.76;100.00
41886;BME280;27567;43.084;25.616;2023-05-21T05:59:49;98068.47;;;14.55;100.00
41886;BME280;27567;43.084;25.616;2023-05-21T06:02:33;98067.53;;;14.85;100.00
41886;BME280;27567;43.084;25.616;2023-05-21T06:05:17;98061.56;;;14.83;100.00
41886;BME280;27567;43.084;25.616;2023-05-21T06:08:01;98069.16;;;15.10;100.00
41886;BME280;27567;43.084;25.616;2023-05-21T06:10:45;98057.00;;;14.83;100.00
41886;BME280;27567;43.084;25.616;2023-05-21T06:13:28;98058.28;;;14.69;100.00
41886;BME280;27567;43.084;25.616;2023-05-21T06:16:12;98061.91;;;14.51;100.00
41886;BME280;27567;43.084;25.616;2023-05-21T06:18:56;98062.84;;;14.68;100.00
41886;BME280;27567;43.084;25.616;2023-05-21T06:21:40;98063.09;;;14.91;100.00
41886;BME280;27567;43.084;25.616;2023-05-21T06:24:24;98063.78;;;14.86;100.00
41886;BME280;27567;43.084;25.616;2023-05-21T06:27:09;98061.63;;;15.12;100.00
41886;BME280;27567;43.084;25.616;2023-05-21T06:29:53;98054.56;;;15.23;100.00
41886;BME280;27567;43.084;25.616;2023-05-21T06:32:37;98051.56;;;15.48;100.00
41886;BME280;27567;43.084;25.616;2023-05-21T06:35:22;98051.78;;;15.46;100.00
41886;BME280;27567;43.084;25.616;2023-05-21T06:38:06;98052.22;;;15.55;100.00
41886;BME280;27567;43.084;25.616;2023-05-21T06:40:49;98049.19;;;15.52;100.00
41886;BME280;27567;43.084;25.616;2023-05-21T06:43:33;98044.31;;;15.66;100.00
41886;BME280;27567;43.084;25.616;2023-05-21T06:46:17;98042.50;;;15.13;100.00
41886;BME280;27567;43.084;25.616;2023-05-21T06:49:01;98045.72;;;14.98;100.00
41886;BME280;27567;43.084;25.616;2023-05-21T06:51:45;98045.56;;;15.05;100.00
41886;BME280;27567;43.084;25.616;2023-05-21T06:54:29;98047.56;;;14.98;100.00
41886;BME280;27567;43.084;25.616;2023-05-21T06:57:14;98040.91;;;15.29;100.00
41886;BME280;27567;43.084;25.616;2023-05-21T06:59:58;98036.69;;;15.62;100.00
41886;BME280;27567;43.084;25.616;2023-05-21T07:02:42;98036.31;;;16.17;100.00
41886;BME280;27567;43.084;25.616;2023-05-21T07:05:26;98040.34;;;16.48;100.00
41886;BME280;27567;43.084;25.616;2023-05-21T07:08:10;98037.72;;;16.36;100.00
41886;BME280;27567;43.084;25.616;2023-05-21T07:10:54;98042.88;;;16.55;100.00
41886;BME280;27567;43.084;25.616;2023-05-21T07:13:39;98044.69;;;16.89;100.00
41886;BME280;27567;43.084;25.616;2023-05-21T07:16:23;98044.34;;;16.46;100.00
41886;BME280;27567;43.084;25.616;2023-05-21T07:19:07;98043.84;;;16.32;100.00
41886;BME280;27567;43.084;25.616;2023-05-21T07:21:50;98033.81;;;17.28;100.00
41886;BME280;27567;43.084;25.616;2023-05-21T07:24:34;98035.09;;;17.42;100.00
41886;BME280;27567;43.084;25.616;2023-05-21T07:27:18;98030.66;;;16.92;100.00
41886;BME280;27567;43.084;25.616;2023-05-21T07:30:03;98030.28;;;16.83;100.00
41886;BME280;27567;43.084;25.616;2023-05-21T07:32:47;98035.78;;;17.10;100.00
41886;BME280;27567;43.084;25.616;2023-05-21T07:35:30;98028.06;;;16.97;100.00
41886;BME280;27567;43.084;25.616;2023-05-21T07:38:14;98035.19;;;17.53;100.00
41886;BME280;27567;43.084;25.616;2023-05-21T07:41:00;98029.50;;;18.04;100.00
41886;BME280;27567;43.084;25.616;2023-05-21T07:43:54;98039.44;;;18.63;100.00
41886;BME280;27567;43.084;25.616;2023-05-21T07:46:39;98033.53;;;18.77;100.00
41886;BME280;27567;43.084;25.616;2023-05-21T07:49:26;98030.78;;;18.72;100.00
41886;BME280;27567;43.084;25.616;2023-05-21T07:52:10;98035.84;;;18.53;100.00
41886;BME280;27567;43.084;25.616;2023-05-21T07:54:54;98029.63;;;18.57;100.00
41886;BME280;27567;43.084;25.616;2023-05-21T07:57:38;98028.72;;;18.95;100.00
41886;BME280;27567;43.084;25.616;2023-05-21T08:00:22;98025.31;;;19.10;100.00
41886;BME280;27567;43.084;25.616;2023-05-21T08:03:07;98028.28;;;19.03;100.00
41886;BME280;27567;43.084;25.616;2023-05-21T08:05:51;98026.69;;;19.12;100.00
41886;BME280;27567;43.084;25.616;2023-05-21T08:08:35;98026.81;;;19.53;100.00
41886;BME280;27567;43.084;25.616;2023-05-21T08:11:19;98024.72;;;19.81;100.00
41886;BME280;27567;43.084;25.616;2023-05-21T08:14:04;98019.72;;;19.37;100.00
41886;BME280;27567;43.084;25.616;2023-05-21T08:16:51;98022.53;;;19.78;100.00
41886;BME280;27567;43.084;25.616;2023-05-21T08:19:35;98021.06;;;19.40;100.00
41886;BME280;27567;43.084;25.616;2023-05-21T08:22:19;98029.53;;;19.48;100.00
41886;BME280;27567;43.084;25.616;2023-05-21T08:25:04;98027.53;;;19.28;100.00
41886;BME280;27567;43.084;25.616;2023-05-21T08:27:48;98038.97;;;19.25;100.00
41886;BME280;27567;43.084;25.616;2023-05-21T08:30:32;98043.38;;;19.52;100.00
41886;BME280;27567;43.084;25.616;2023-05-21T08:33:16;98033.06;;;19.49;100.00
41886;BME280;27567;43.084;25.616;2023-05-21T08:36:01;98042.91;;;19.65;100.00
41886;BME280;27567;43.084;25.616;2023-05-21T08:38:45;98041.84;;;19.82;100.00
41886;BME280;27567;43.084;25.616;2023-05-21T08:41:30;98055.78;;;20.22;100.00
41886;BME280;27567;43.084;25.616;2023-05-21T08:44:19;98060.41;;;20.11;100.00
41886;BME280;27567;43.084;25.616;2023-05-21T08:47:06;98063.09;;;19.90;100.00
41886;BME280;27567;43.084;25.616;2023-05-21T08:49:52;98071.84;;;20.13;100.00
41886;BME280;27567;43.084;25.616;2023-05-21T08:52:37;98066.94;;;20.15;100.00
41886;BME280;27567;43.084;25.616;2023-05-21T08:55:21;98067.16;;;19.93;100.00
41886;BME280;27567;43.084;25.616;2023-05-21T08:58:06;98071.56;;;20.04;100.00
41886;BME280;27567;43.084;25.616;2023-05-21T09:00:50;98067.75;;;20.36;100.00
41886;BME280;27567;43.084;25.616;2023-05-21T09:03:34;98076.13;;;21.12;100.00
41886;BME280;27567;43.084;25.616;2023-05-21T09:06:22;98071.81;;;20.91;100.00
41886;BME280;27567;43.084;25.616;2023-05-21T09:09:27;98075.59;;;20.95;100.00
41886;BME280;27567;43.084;25.616;2023-05-21T09:12:15;98069.84;;;21.77;100.00
41886;BME280;27567;43.084;25.616;2023-05-21T09:15:00;98072.91;;;21.71;100.00
41886;BME280;27567;43.084;25.616;2023-05-21T09:17:47;98076.50;;;22.75;100.00
41886;BME280;27567;43.084;25.616;2023-05-21T09:20:32;98076.44;;;23.34;100.00
41886;BME280;27567;43.084;25.616;2023-05-21T09:23:16;98073.88;;;23.43;100.00
41886;BME280;27567;43.084;25.616;2023-05-21T09:26:09;98077.63;;;23.28;100.00
41886;BME280;27567;43.084;25.616;2023-05-21T09:28:57;98080.28;;;22.10;100.00
41886;BME280;27567;43.084;25.616;2023-05-21T09:31:44;98075.63;;;21.60;100.00
41886;BME280;27567;43.084;25.616;2023-05-21T09:34:28;98073.16;;;21.69;100.00
41886;BME280;27567;43.084;25.616;2023-05-21T09:37:12;98071.59;;;22.03;100.00
41886;BME280;27567;43.084;25.616;2023-05-21T09:39:57;98075.09;;;22.14;100.00
41886;BME280;27567;43.084;25.616;2023-05-21T09:42:46;98074.59;;;22.41;100.00
41886;BME280;27567;43.084;25.616;2023-05-21T09:45:32;98070.78;;;23.01;100.00
41886;BME280;27567;43.084;25.616;2023-05-21T09:48:31;98066.34;;;23.35;100.00
41886;BME280;27567;43.084;25.616;2023-05-21T09:51:20;98072.66;;;23.06;100.00
41886;BME280;27567;43.084;25.616;2023-05-21T09:54:04;98063.00;;;23.38;100.00
41886;BME280;27567;43.084;25.616;2023-05-21T09:56:50;98060.72;;;22.96;100.00
41886;BME280;27567;43.084;25.616;2023-05-21T09:59:38;98063.97;;;24.10;100.00
41886;BME280;27567;43.084;25.616;2023-05-21T10:02:23;98063.88;;;24.15;100.00
41886;BME280;27567;43.084;25.616;2023-05-21T10:05:09;98066.44;;;24.78;100.00
41886;BME280;27567;43.084;25.616;2023-05-21T10:07:59;98064.53;;;25.06;100.00
41886;BME280;27567;43.084;25.616;2023-05-21T10:10:43;98059.88;;;26.45;100.00
41886;BME280;27567;43.084;25.616;2023-05-21T10:13:33;98048.25;;;27.11;100.00
41886;BME280;27567;43.084;25.616;2023-05-21T10:16:21;98054.63;;;29.05;78.91
41886;BME280;27567;43.084;25.616;2023-05-21T10:19:06;98060.06;;;31.42;61.32
41886;BME280;27567;43.084;25.616;2023-05-21T10:21:53;98046.06;;;31.51;62.33
41886;BME280;27567;43.084;25.616;2023-05-21T10:24:41;98055.66;;;30.03;75.62
41886;BME280;27567;43.084;25.616;2023-05-21T10:27:27;98056.59;;;27.28;94.90
41886;BME280;27567;43.084;25.616;2023-05-21T10:30:11;98065.63;;;26.11;100.00
41886;BME280;27567;43.084;25.616;2023-05-21T10:32:58;98061.47;;;26.00;100.00
41886;BME280;27567;43.084;25.616;2023-05-21T10:35:45;98051.59;;;25.99;100.00
41886;BME280;27567;43.084;25.616;2023-05-21T10:38:32;98044.97;;;26.91;100.00
41886;BME280;27567;43.084;25.616;2023-05-21T10:41:17;98049.22;;;25.84;100.00
41886;BME280;27567;43.084;25.616;2023-05-21T10:47:17;98039.53;;;27.58;100.00
41886;BME280;27567;43.084;25.616;2023-05-21T11:01:50;98023.69;;;31.43;64.95
41886;BME280;27567;43.084;25.616;2023-05-21T11:04:40;98029.06;;;34.80;53.59
41886;BME280;27567;43.084;25.616;2023-05-21T11:07:51;98024.31;;;35.85;46.23
41886;BME280;27567;43.084;25.616;2023-05-21T11:10:42;98018.41;;;35.59;46.36
41886;BME280;27567;43.084;25.616;2023-05-21T11:13:43;98014.97;;;35.70;47.10
41886;BME280;27567;43.084;25.616;2023-05-21T11:16:28;98004.56;;;36.31;41.57
41886;BME280;27567;43.084;25.616;2023-05-21T11:19:17;98003.09;;;36.07;43.62
41886;BME280;27567;43.084;25.616;2023-05-21T11:22:28;97994.53;;;35.92;38.58
41886;BME280;27567;43.084;25.616;2023-05-21T11:25:11;97984.84;;;33.89;48.31
41886;BME280;27567;43.084;25.616;2023-05-21T11:28:04;97998.81;;;33.21;58.12
41886;BME280;27567;43.084;25.616;2023-05-21T11:31:24;97994.91;;;33.58;51.31
41886;BME280;27567;43.084;25.616;2023-05-21T11:34:18;97979.88;;;34.18;50.78
41886;BME280;27567;43.084;25.616;2023-05-21T11:40:18;97977.66;;;37.62;41.03
41886;BME280;27567;43.084;25.616;2023-05-21T11:43:03;97973.75;;;35.86;42.48
41886;BME280;27567;43.084;25.616;2023-05-21T11:45:47;97964.50;;;37.69;39.17
41886;BME280;27567;43.084;25.616;2023-05-21T11:48:31;97970.00;;;38.51;37.17
41886;BME280;27567;43.084;25.616;2023-05-21T11:51:15;97964.09;;;37.64;40.43
41886;BME280;27567;43.084;25.616;2023-05-21T11:53:59;97954.44;;;37.47;40.14
41886;BME280;27567;43.084;25.616;2023-05-21T11:56:43;97950.31;;;36.70;43.73
41886;BME280;27567;43.084;25.616;2023-05-21T11:59:28;97958.28;;;35.04;46.95
41886;BME280;27567;43.084;25.616;2023-05-21T12:02:16;97932.38;;;33.68;48.38
41886;BME280;27567;43.084;25.616;2023-05-21T12:05:00;97935.19;;;28.95;74.83
41886;BME280;27567;43.084;25.616;2023-05-21T12:07:46;97945.81;;;26.56;100.00
41886;BME280;27567;43.084;25.616;2023-05-21T12:10:31;97964.94;;;25.33;100.00
41886;BME280;27567;43.084;25.616;2023-05-21T12:13:15;97962.84;;;25.16;100.00
41886;BME280;27567;43.084;25.616;2023-05-21T12:15:59;97961.31;;;24.54;100.00
41886;BME280;27567;43.084;25.616;2023-05-21T12:18:43;97955.94;;;23.83;100.00
41886;BME280;27567;43.084;25.616;2023-05-21T12:21:28;97957.31;;;24.19;100.00
41886;BME280;27567;43.084;25.616;2023-05-21T12:24:14;97962.44;;;25.23;100.00
41886;BME280;27567;43.084;25.616;2023-05-21T12:27:00;97953.59;;;25.26;100.00
41886;BME280;27567;43.084;25.616;2023-05-21T12:29:46;97955.88;;;24.82;100.00
41886;BME280;27567;43.084;25.616;2023-05-21T12:32:31;97943.97;;;24.59;100.00
41886;BME280;27567;43.084;25.616;2023-05-21T12:35:22;97963.75;;;24.09;100.00
41886;BME280;27567;43.084;25.616;2023-05-21T12:38:06;97949.25;;;24.08;100.00
41886;BME280;27567;43.084;25.616;2023-05-21T12:40:52;97954.13;;;23.59;100.00
41886;BME280;27567;43.084;25.616;2023-05-21T12:43:36;97939.50;;;23.31;100.00
41886;BME280;27567;43.084;25.616;2023-05-21T12:46:20;97940.72;;;22.76;100.00
41886;BME280;27567;43.084;25.616;2023-05-21T12:49:06;97938.97;;;23.04;100.00
41886;BME280;27567;43.084;25.616;2023-05-21T12:51:55;97930.59;;;23.20;100.00
41886;BME280;27567;43.084;25.616;2023-05-21T12:54:40;97926.47;;;23.94;100.00
41886;BME280;27567;43.084;25.616;2023-05-21T12:57:33;97913.47;;;24.05;100.00
41886;BME280;27567;43.084;25.616;2023-05-21T13:00:22;97917.97;;;23.95;100.00
41886;BME280;27567;43.084;25.616;2023-05-21T13:03:06;97924.78;;;23.46;100.00
41886;BME280;27567;43.084;25.616;2023-05-21T13:06:00;97914.25;;;23.53;100.00
41886;BME280;27567;43.084;25.616;2023-05-21T13:08:44;97908.44;;;23.93;100.00
41886;BME280;27567;43.084;25.616;2023-05-21T13:11:28;97907.91;;;24.24;100.00
41886;BME280;27567;43.084;25.616;2023-05-21T13:14:11;97913.31;;;24.99;100.00
41886;BME280;27567;43.084;25.616;2023-05-21T13:16:56;97894.25;;;26.62;100.00
41886;BME280;27567;43.084;25.616;2023-05-21T13:19:40;97887.84;;;29.91;86.77
41886;BME280;27567;43.084;25.616;2023-05-21T13:22:24;97889.94;;;32.60;62.94
41886;BME280;27567;43.084;25.616;2023-05-21T13:25:09;97885.84;;;35.31;48.95
41886;BME280;27567;43.084;25.616;2023-05-21T13:27:54;97896.09;;;34.00;48.39
41886;BME280;27567;43.084;25.616;2023-05-21T13:30:39;97876.28;;;34.98;54.50
41886;BME280;27567;43.084;25.616;2023-05-21T13:33:23;97868.78;;;36.05;53.31
41886;BME280;27567;43.084;25.616;2023-05-21T13:36:07;97870.47;;;36.62;49.13
41886;BME280;27567;43.084;25.616;2023-05-21T13:38:51;97875.75;;;34.92;57.07
41886;BME280;27567;43.084;25.616;2023-05-21T13:41:35;97876.16;;;35.86;54.36
41886;BME280;27567;43.084;25.616;2023-05-21T13:44:19;97866.44;;;36.52;46.80
41886;BME280;27567;43.084;25.616;2023-05-21T13:47:07;97860.56;;;36.72;45.76
41886;BME280;27567;43.084;25.616;2023-05-21T13:49:55;97862.09;;;35.75;47.85
41886;BME280;27567;43.084;25.616;2023-05-21T13:52:39;97860.56;;;35.13;50.58
41886;BME280;27567;43.084;25.616;2023-05-21T13:55:23;97853.69;;;36.54;44.46
41886;BME280;27567;43.084;25.616;2023-05-21T13:58:07;97853.66;;;37.14;43.05
41886;BME280;27567;43.084;25.616;2023-05-21T14:00:51;97853.31;;;35.73;48.92
41886;BME280;27567;43.084;25.616;2023-05-21T14:03:35;97854.50;;;36.55;45.72
41886;BME280;27567;43.084;25.616;2023-05-21T14:06:19;97861.09;;;36.92;43.78
41886;BME280;27567;43.084;25.616;2023-05-21T14:09:03;97864.97;;;35.48;47.55
41886;BME280;27567;43.084;25.616;2023-05-21T14:11:47;97851.75;;;34.54;48.71
41886;BME280;27567;43.084;25.616;2023-05-21T14:14:32;97843.28;;;34.46;45.95
41886;BME280;27567;43.084;25.616;2023-05-21T14:17:16;97845.78;;;35.77;43.55
41886;BME280;27567;43.084;25.616;2023-05-21T14:20:01;97842.47;;;37.07;37.69
41886;BME280;27567;43.084;25.616;2023-05-21T14:22:45;97839.59;;;35.95;31.66
41886;BME280;27567;43.084;25.616;2023-05-21T14:25:29;97829.41;;;35.04;34.62
41886;BME280;27567;43.084;25.616;2023-05-21T14:28:13;97833.31;;;34.45;37.27
41886;BME280;27567;43.084;25.616;2023-05-21T14:30:57;97841.94;;;34.64;37.19
41886;BME280;27567;43.084;25.616;2023-05-21T14:33:41;97831.97;;;32.39;37.56
41886;BME280;27567;43.084;25.616;2023-05-21T14:36:25;97831.81;;;34.28;34.73